Aviation Digital Data Service (ADDS)

Output produced by METARs form (0025 UTC 25 April 2019)
found at http://www.aviationweather.gov/metar/data/
 
Forecast for: NGFU (FUNAFUTI TUVALU , FJ)
Text: TAF NGFU 242327Z 2500/2524 15010KT 9999 FEW020 BKN100
Forecast period: 0000 UTC 25 April 2019 to 0000 UTC 26 April 2019
Forecast type: FROM: standard forecast or significant change
Winds: from the SSE (150 degrees) at 12 MPH (10 knots; 5.1 m/s)
Visibility: 6 or more miles 10+ km)
Ceiling: 10000 feet AGL
Clouds: few clouds at 2000 feet AGL
broken clouds at 10000 feet AGL
Weather: no significant weather forecast for this period